KBTR/BTR METAR and TAF weather

Enter ICAO airport designator
Station Type Date Time Source
KBTR METAR 2021/09/23 23:53 UTC NOAA

KBTR 232353Z 01004KT 10SM CLR 22/13 A3004 RMK AO2 SLP171 T02170133


Station Type Date Time Source
KBTR Decoded METAR 2021/09/23 23:53 UTC NOAA

BATON ROUGE METRO RYAN FIELD, LA, United States (KBTR) 30-32N 91-09W 21M
Sep 23, 2021 - 07:53 PM EDT / 2021.09.23 2353 UTC
Wind: from the N (010 degrees) at 5 MPH (4 KT):0
Visibility: 10 mile(s):0
Sky conditions: clear
Temperature: 71.1 F (21.7 C)
Dew Point: 55.9 F (13.3 C)
Relative Humidity: 58%
Pressure (altimeter): 30.04 in. Hg (1017 hPa)
Pressure tendency: 0.01 inches (0.2 hPa) higher than three hours ago
ob: KBTR 232353Z 01004KT 10SM CLR 22/13 A3004 RMK AO2 SLP171 T02170133 10261 20217 53002
cycle: 0

Station Type Date Time Source
KBTR TAF 2021/09/23 18:22 UTC NOAA

TAF KBTR 231720Z 2318/2418 03008G15KT P6SM SKC
FM240000 07005KT P6SM SKC

Example: see airport list